createdAt,value
2022-11-16T00:01:30.832Z,22.38
2022-11-16T00:04:00.205Z,21.48
2022-11-16T00:06:28.588Z,21.23
2022-11-16T00:09:19.664Z,21.30
2022-11-16T00:11:46.489Z,19.13
2022-11-16T00:14:13.453Z,19.60
2022-11-16T00:16:40.821Z,21.88
2022-11-16T00:19:07.745Z,22.15
2022-11-16T00:21:35.310Z,21.85
2022-11-16T00:24:02.801Z,20.48
2022-11-16T00:26:29.931Z,16.50
2022-11-16T00:28:56.853Z,16.73
2022-11-16T00:31:24.462Z,16.38
2022-11-16T00:33:51.733Z,16.40
2022-11-16T00:36:19.119Z,18.48
2022-11-16T00:38:45.786Z,20.58
2022-11-16T00:41:12.759Z,17.45
2022-11-16T00:43:39.783Z,21.38
2022-11-16T00:46:06.559Z,18.38
2022-11-16T00:48:33.917Z,19.05
2022-11-16T00:51:00.674Z,20.73
2022-11-16T00:53:27.763Z,20.15
2022-11-16T00:55:57.290Z,22.00
2022-11-16T00:58:24.980Z,20.35
2022-11-16T01:00:52.029Z,20.08
2022-11-16T01:03:18.599Z,20.25
2022-11-16T01:05:45.666Z,20.90
2022-11-16T01:08:12.657Z,21.00
2022-11-16T01:10:40.249Z,18.05
2022-11-16T01:13:07.870Z,19.65
2022-11-16T01:15:34.885Z,18.73
2022-11-16T01:18:01.860Z,21.52
2022-11-16T01:20:29.932Z,21.38
2022-11-16T01:22:56.728Z,18.40
2022-11-16T01:25:23.857Z,20.58
2022-11-16T01:27:50.926Z,22.55
2022-11-16T01:30:17.546Z,19.08
2022-11-16T01:32:44.563Z,19.88
2022-11-16T01:35:16.335Z,17.35
2022-11-16T01:37:43.430Z,20.30
2022-11-16T01:40:11.555Z,18.33
2022-11-16T01:42:38.220Z,20.20
2022-11-16T01:45:19.076Z,19.48
2022-11-16T01:47:46.753Z,18.13
2022-11-16T01:50:16.853Z,17.92
2022-11-16T01:52:55.014Z,18.60
2022-11-16T01:55:23.927Z,17.23
2022-11-16T01:57:51.297Z,14.82
2022-11-16T02:00:18.581Z,17.00
2022-11-16T02:02:45.930Z,18.25
2022-11-16T02:05:17.671Z,17.92
2022-11-16T02:08:36.720Z,18.25
2022-11-16T02:11:24.717Z,16.08
2022-11-16T02:14:00.362Z,18.05
2022-11-16T02:16:43.116Z,16.88
2022-11-16T02:19:59.944Z,17.52
2022-11-16T02:23:08.090Z,18.05
2022-11-16T02:25:50.406Z,19.83
2022-11-16T02:28:30.299Z,18.15
2022-11-16T02:31:00.664Z,16.73
2022-11-16T02:33:33.713Z,15.30
2022-11-16T02:36:03.466Z,18.83
2022-11-16T02:38:35.847Z,17.17
2022-11-16T02:41:11.433Z,18.02
2022-11-16T02:43:44.541Z,18.38
2022-11-16T02:46:20.297Z,17.08
2022-11-16T02:48:50.662Z,16.73
2022-11-16T02:51:19.006Z,15.55
2022-11-16T02:54:09.486Z,18.08
2022-11-16T02:57:04.064Z,14.25
2022-11-16T02:59:38.446Z,12.07
2022-11-16T03:02:36.245Z,17.98
2022-11-16T03:05:10.029Z,16.33
2022-11-16T03:07:49.657Z,15.40
2022-11-16T03:10:38.474Z,15.30
2022-11-16T03:13:07.414Z,13.52
2022-11-16T03:15:37.728Z,18.38
2022-11-16T03:18:08.325Z,18.10
2022-11-16T03:20:38.144Z,18.77
2022-11-16T03:23:08.822Z,16.42
2022-11-16T03:25:47.979Z,16.75
2022-11-16T03:28:21.859Z,13.70
2022-11-16T03:31:01.315Z,18.00
2022-11-16T03:33:33.049Z,16.40
2022-11-16T03:36:03.585Z,14.63
2022-11-16T03:38:33.238Z,13.70
2022-11-16T03:41:03.833Z,17.77
2022-11-16T03:43:32.580Z,16.92
2022-11-16T03:45:59.124Z,15.93
2022-11-16T03:48:25.742Z,14.70
2022-11-16T03:50:52.933Z,17.05
2022-11-16T03:53:19.448Z,18.10
2022-11-16T03:55:49.800Z,16.25
2022-11-16T03:58:18.458Z,15.43
2022-11-16T04:00:45.844Z,16.27
2022-11-16T04:03:12.888Z,17.45
2022-11-16T04:05:58.046Z,18.02
2022-11-16T04:08:43.737Z,17.70
2022-11-16T04:11:37.626Z,17.52
2022-11-16T04:14:23.922Z,18.83
2022-11-16T04:17:29.603Z,17.95
2022-11-16T04:20:14.722Z,15.55
2022-11-16T04:23:07.682Z,15.35
2022-11-16T04:25:37.411Z,17.35
2022-11-16T04:28:13.825Z,15.93
2022-11-16T04:31:01.412Z,15.80
2022-11-16T04:33:48.429Z,15.35
2022-11-16T04:36:34.279Z,15.85
2022-11-16T04:39:00.870Z,16.60
2022-11-16T04:41:46.346Z,16.23
2022-11-16T04:44:13.537Z,16.60
2022-11-16T04:46:58.604Z,16.42
2022-11-16T04:49:25.573Z,15.95
2022-11-16T04:51:52.174Z,16.35
2022-11-16T04:54:19.151Z,16.88
2022-11-16T04:56:45.819Z,14.52
2022-11-16T04:59:13.565Z,18.58
2022-11-16T05:01:58.885Z,18.80
2022-11-16T05:04:25.971Z,17.48
2022-11-16T05:06:53.002Z,17.42
2022-11-16T05:09:19.561Z,17.75
2022-11-16T05:11:46.548Z,18.65
2022-11-16T05:14:13.202Z,19.52
2022-11-16T05:16:39.875Z,18.85
2022-11-16T05:19:26.081Z,18.35
2022-11-16T05:21:52.692Z,17.52
2022-11-16T05:24:34.623Z,17.38
2022-11-16T05:27:03.149Z,19.25
2022-11-16T05:29:30.458Z,15.45
2022-11-16T05:31:58.460Z,17.67
2022-11-16T05:34:25.208Z,14.63
2022-11-16T05:36:52.373Z,18.95
2022-11-16T05:39:19.475Z,16.75
2022-11-16T05:41:47.113Z,15.13
2022-11-16T05:44:14.775Z,15.30
2022-11-16T05:46:42.169Z,15.95
2022-11-16T05:49:09.386Z,16.10
2022-11-16T05:51:37.255Z,18.63
2022-11-16T05:54:04.371Z,16.77
2022-11-16T05:56:31.967Z,18.13
2022-11-16T05:58:59.143Z,19.30
2022-11-16T06:01:26.598Z,19.08
2022-11-16T06:03:54.181Z,17.27
2022-11-16T06:06:21.182Z,16.95
2022-11-16T06:08:48.238Z,18.65
2022-11-16T06:11:14.765Z,17.83
2022-11-16T06:13:41.746Z,16.92
2022-11-16T06:16:09.336Z,16.65
2022-11-16T06:18:44.674Z,18.15
2022-11-16T06:21:12.606Z,17.70
2022-11-16T06:23:39.418Z,17.70
2022-11-16T06:26:07.354Z,18.73
2022-11-16T06:28:34.627Z,20.55
2022-11-16T06:31:02.130Z,16.88
2022-11-16T06:33:33.362Z,17.08
2022-11-16T06:36:00.435Z,19.02
2022-11-16T06:38:28.181Z,17.73
2022-11-16T06:40:57.567Z,18.00
2022-11-16T06:43:25.903Z,15.82
2022-11-16T06:45:55.090Z,17.42
2022-11-16T06:48:22.660Z,20.77
2022-11-16T06:50:51.126Z,17.45
2022-11-16T06:53:18.959Z,19.73
2022-11-16T06:55:45.972Z,18.65
2022-11-16T06:58:12.708Z,19.73
2022-11-16T07:00:39.763Z,17.00
2022-11-16T07:03:06.354Z,15.77
2022-11-16T07:05:33.165Z,19.63
2022-11-16T07:07:59.766Z,17.92
2022-11-16T07:10:26.546Z,19.08
2022-11-16T07:12:53.720Z,18.42
2022-11-16T07:15:20.936Z,18.75
2022-11-16T07:17:47.585Z,19.65
2022-11-16T07:20:14.250Z,20.42
2022-11-16T07:22:41.385Z,19.92
2022-11-16T07:25:09.016Z,16.35
2022-11-16T07:27:35.630Z,17.83
2022-11-16T07:30:02.381Z,18.25
2022-11-16T07:32:31.276Z,21.23
2022-11-16T07:34:59.422Z,17.85
2022-11-16T07:37:26.371Z,19.50
2022-11-16T07:39:53.496Z,18.52
2022-11-16T07:42:20.026Z,17.70
2022-11-16T07:44:46.624Z,18.17
2022-11-16T07:47:13.303Z,19.77
2022-11-16T07:49:40.005Z,19.60
2022-11-16T07:52:10.580Z,19.63
2022-11-16T07:54:37.435Z,20.08
2022-11-16T07:57:04.082Z,21.63
2022-11-16T07:59:31.079Z,20.02
2022-11-16T08:01:59.193Z,18.98
2022-11-16T08:04:28.384Z,22.02
2022-11-16T08:06:54.994Z,19.23
2022-11-16T08:09:21.610Z,21.27
2022-11-16T08:11:50.177Z,18.40
2022-11-16T08:14:18.516Z,19.73
2022-11-16T08:16:45.498Z,19.02
2022-11-16T08:19:12.040Z,20.30
2022-11-16T08:21:39.002Z,19.67
2022-11-16T08:24:06.265Z,21.95
2022-11-16T08:26:33.285Z,21.08
2022-11-16T08:29:00.030Z,19.65
2022-11-16T08:31:28.884Z,21.85
2022-11-16T08:33:56.678Z,19.35
2022-11-16T08:36:23.508Z,19.80
2022-11-16T08:38:51.887Z,18.70
2022-11-16T08:41:19.883Z,18.63
2022-11-16T08:43:47.643Z,21.27
2022-11-16T08:46:14.938Z,19.63
2022-11-16T08:48:41.969Z,19.55
2022-11-16T08:51:19.635Z,18.85
2022-11-16T08:53:48.153Z,20.38
2022-11-16T08:56:16.878Z,22.83
2022-11-16T08:58:46.177Z,17.60
2022-11-16T09:01:18.314Z,19.35
2022-11-16T09:03:45.982Z,21.55
2022-11-16T09:06:13.486Z,18.40
2022-11-16T09:08:41.915Z,18.70
2022-11-16T09:11:14.226Z,17.52
2022-11-16T09:13:40.913Z,17.67
2022-11-16T09:16:08.655Z,18.52
2022-11-16T09:18:36.448Z,21.83
2022-11-16T09:21:04.192Z,20.15
2022-11-16T09:23:31.024Z,18.05
2022-11-16T09:26:04.426Z,19.23
2022-11-16T09:28:32.087Z,18.73
2022-11-16T09:31:02.389Z,21.23
2022-11-16T09:33:30.596Z,20.33
2022-11-16T09:36:01.582Z,21.48
2022-11-16T09:38:46.587Z,19.27
2022-11-16T09:41:16.085Z,16.33
2022-11-16T09:43:51.618Z,20.88
2022-11-16T09:46:27.258Z,20.00
2022-11-16T09:48:58.556Z,21.50
2022-11-16T09:51:29.170Z,20.20
2022-11-16T09:54:01.148Z,20.88
2022-11-16T09:56:31.082Z,19.45
2022-11-16T09:59:20.637Z,19.23
2022-11-16T10:02:06.670Z,20.20
2022-11-16T10:04:44.249Z,19.90
2022-11-16T10:07:26.322Z,20.65
2022-11-16T10:09:53.413Z,21.77
2022-11-16T10:12:38.281Z,19.85
2022-11-16T10:15:29.959Z,18.80
2022-11-16T10:18:29.570Z,18.35
2022-11-16T10:21:21.562Z,17.73
2022-11-16T10:23:51.410Z,22.75
2022-11-16T10:26:41.206Z,23.35
2022-11-16T10:29:30.122Z,22.35
2022-11-16T10:32:29.321Z,20.40
2022-11-16T10:35:05.282Z,21.88
2022-11-16T10:37:37.139Z,23.98
2022-11-16T10:40:23.268Z,21.15
2022-11-16T10:43:06.530Z,18.75
2022-11-16T10:46:04.806Z,24.13
2022-11-16T10:48:42.961Z,20.83
2022-11-16T10:51:10.520Z,22.02
2022-11-16T10:53:43.662Z,18.40
2022-11-16T10:56:31.758Z,21.00
2022-11-16T10:59:04.162Z,20.80
2022-11-16T11:01:38.619Z,21.55
2022-11-16T11:04:25.469Z,16.85
2022-11-16T11:06:54.887Z,19.15
2022-11-16T11:09:29.438Z,22.60
2022-11-16T11:12:40.407Z,20.35
2022-11-16T11:15:26.171Z,21.63
2022-11-16T11:18:15.090Z,18.30
2022-11-16T11:20:45.650Z,22.50
2022-11-16T11:23:19.216Z,20.02
2022-11-16T11:25:53.511Z,20.42
2022-11-16T11:28:33.890Z,19.23
2022-11-16T11:31:06.179Z,23.85
2022-11-16T11:34:01.607Z,20.75
2022-11-16T11:36:40.444Z,23.42
2022-11-16T11:39:13.121Z,24.45
2022-11-16T11:41:41.707Z,24.55
2022-11-16T11:44:17.582Z,20.88
2022-11-16T11:49:50.333Z,23.40
2022-11-16T11:52:39.465Z,22.98
2022-11-16T11:55:08.225Z,24.83
2022-11-16T11:57:42.458Z,22.50
2022-11-16T12:00:13.037Z,22.33
2022-11-16T12:02:54.880Z,25.58
2022-11-16T12:05:35.499Z,22.42
2022-11-16T12:08:05.017Z,22.88
2022-11-16T12:10:48.205Z,25.52
2022-11-16T12:13:34.368Z,21.30
2022-11-16T12:16:53.421Z,24.08
2022-11-16T12:19:45.394Z,21.42
2022-11-16T12:22:49.154Z,23.60
2022-11-16T12:25:54.579Z,22.80
2022-11-16T12:28:47.132Z,20.05
2022-11-16T12:32:00.058Z,20.20
2022-11-16T12:34:58.227Z,26.38
2022-11-16T12:37:51.473Z,22.48
2022-11-16T12:40:21.527Z,21.35
2022-11-16T12:43:00.355Z,19.75
2022-11-16T12:45:53.858Z,19.95
2022-11-16T12:48:39.085Z,21.05
2022-11-16T12:51:31.620Z,19.88
2022-11-16T12:54:05.061Z,18.15
2022-11-16T12:56:49.136Z,21.23
2022-11-16T12:59:38.263Z,20.85
2022-11-16T13:02:22.894Z,18.98
2022-11-16T13:05:05.721Z,19.33
2022-11-16T13:07:40.794Z,20.48
2022-11-16T13:10:22.621Z,19.25
2022-11-16T13:13:09.055Z,20.20
2022-11-16T13:15:42.970Z,19.25
2022-11-16T13:18:15.327Z,18.38
2022-11-16T13:20:59.491Z,20.38
2022-11-16T13:23:35.596Z,19.48
2022-11-16T13:26:10.657Z,19.77
2022-11-16T13:28:50.508Z,20.65
2022-11-16T13:31:39.200Z,19.35
2022-11-16T13:34:15.818Z,18.08
2022-11-16T13:36:44.880Z,20.80
2022-11-16T13:39:18.862Z,20.40
2022-11-16T13:42:07.004Z,21.10
2022-11-16T13:44:34.927Z,20.48
2022-11-16T13:47:16.647Z,20.67
2022-11-16T13:49:57.390Z,18.33
2022-11-16T13:53:23.518Z,19.20
2022-11-16T13:55:46.554Z,17.48
2022-11-16T13:58:21.036Z,17.83
2022-11-16T14:01:01.681Z,20.35
2022-11-16T14:03:32.256Z,18.70
2022-11-16T14:05:59.575Z,17.17
2022-11-16T14:08:45.110Z,19.77
2022-11-16T14:11:38.503Z,19.08
2022-11-16T14:14:09.563Z,19.70
2022-11-16T14:16:50.184Z,18.70
2022-11-16T14:19:47.214Z,19.02
2022-11-16T14:22:21.577Z,18.70
2022-11-16T14:24:57.553Z,20.83
2022-11-16T14:27:35.486Z,19.88
2022-11-16T14:30:17.483Z,19.85
2022-11-16T14:32:46.729Z,21.70
2022-11-16T14:35:36.659Z,19.40
2022-11-16T14:38:18.142Z,20.13
2022-11-16T14:40:52.571Z,20.17
2022-11-16T14:43:31.614Z,18.98
2022-11-16T14:46:03.282Z,18.25
2022-11-16T14:48:31.215Z,19.17
2022-11-16T14:51:30.078Z,20.08
2022-11-16T14:54:01.603Z,19.15
2022-11-16T14:56:28.640Z,17.65
2022-11-16T14:58:57.490Z,19.65
2022-11-16T15:01:34.294Z,18.50
2022-11-16T15:04:04.585Z,17.05
2022-11-16T15:06:56.051Z,19.20
2022-11-16T15:09:28.634Z,19.38
2022-11-16T15:12:15.017Z,19.33
2022-11-16T15:14:51.534Z,19.27
2022-11-16T15:17:22.638Z,17.52
2022-11-16T15:20:01.327Z,16.05
2022-11-16T15:22:30.786Z,15.48
2022-11-16T15:24:59.673Z,15.48
2022-11-16T15:27:41.729Z,17.35
2022-11-16T15:30:17.388Z,16.85
2022-11-16T15:32:45.697Z,15.70
2022-11-16T15:35:24.931Z,14.25
2022-11-16T15:38:31.142Z,14.82
2022-11-16T15:41:03.935Z,14.95
2022-11-16T15:43:49.546Z,15.98
2022-11-16T15:46:23.708Z,14.13
2022-11-16T15:48:51.675Z,14.57
2022-11-16T15:51:23.511Z,17.42
2022-11-16T15:54:14.477Z,15.43
2022-11-16T15:56:41.650Z,15.15
2022-11-16T15:59:17.176Z,15.60
2022-11-16T16:01:45.598Z,15.77
2022-11-16T16:04:16.831Z,16.20
2022-11-16T16:06:54.434Z,16.42
2022-11-16T16:09:30.552Z,14.05
2022-11-16T16:12:26.690Z,14.77
2022-11-16T16:15:23.142Z,14.07
2022-11-16T16:17:51.702Z,14.77
2022-11-16T16:20:21.803Z,14.48
2022-11-16T16:22:48.650Z,13.75
2022-11-16T16:25:33.571Z,14.60
2022-11-16T16:28:00.214Z,14.60
2022-11-16T16:30:28.913Z,12.73
2022-11-16T16:32:55.990Z,14.52
2022-11-16T16:35:25.291Z,14.25
2022-11-16T16:37:57.780Z,13.15
2022-11-16T16:40:24.544Z,14.75
2022-11-16T16:42:51.582Z,13.70
2022-11-16T16:45:30.523Z,14.30
2022-11-16T16:47:57.726Z,14.20
2022-11-16T16:50:24.282Z,14.05
2022-11-16T16:52:50.800Z,13.35
2022-11-16T16:55:17.794Z,12.23
2022-11-16T16:57:44.366Z,13.13
2022-11-16T17:00:12.147Z,12.88
2022-11-16T17:02:38.884Z,11.70
2022-11-16T17:05:06.073Z,12.57
2022-11-16T17:07:33.149Z,11.52
2022-11-16T17:10:00.225Z,11.77
2022-11-16T17:12:27.253Z,10.70
2022-11-16T17:14:53.839Z,11.30
2022-11-16T17:17:22.376Z,10.90
2022-11-16T17:19:48.923Z,10.93
2022-11-16T17:22:15.706Z,12.20
2022-11-16T17:24:42.675Z,11.25
2022-11-16T17:27:09.327Z,11.85
2022-11-16T17:29:36.251Z,11.18
2022-11-16T17:32:03.337Z,12.05
2022-11-16T17:34:31.701Z,11.35
2022-11-16T17:36:58.250Z,12.43
2022-11-16T17:39:25.253Z,10.05
2022-11-16T17:41:52.263Z,10.68
2022-11-16T17:44:21.895Z,10.82
2022-11-16T17:46:49.353Z,10.07
2022-11-16T17:49:16.192Z,10.70
2022-11-16T17:51:43.160Z,10.95
2022-11-16T17:54:09.750Z,10.05
2022-11-16T17:56:36.955Z,11.15
2022-11-16T17:59:03.610Z,11.00
2022-11-16T18:01:30.383Z,11.10
2022-11-16T18:03:57.172Z,10.63
2022-11-16T18:06:25.549Z,10.45
2022-11-16T18:08:54.000Z,10.10
2022-11-16T18:11:23.086Z,10.90
2022-11-16T18:14:01.037Z,11.00
2022-11-16T18:16:30.039Z,10.93
2022-11-16T18:18:58.951Z,10.52
2022-11-16T18:21:26.147Z,11.02
2022-11-16T18:23:53.171Z,13.35
2022-11-16T18:26:21.664Z,12.75
2022-11-16T18:28:49.518Z,11.07
2022-11-16T18:31:18.354Z,11.90
2022-11-16T18:33:45.294Z,13.02
2022-11-16T18:36:12.472Z,11.43
2022-11-16T18:38:39.280Z,10.88
2022-11-16T18:41:12.002Z,11.60
2022-11-16T18:43:42.789Z,11.85
2022-11-16T18:46:09.763Z,11.35
2022-11-16T18:48:36.719Z,11.85
2022-11-16T18:51:06.651Z,13.45
2022-11-16T18:53:34.256Z,12.18
2022-11-16T18:56:02.280Z,11.05
2022-11-16T19:01:18.464Z,10.60
2022-11-16T19:03:46.735Z,12.68
2022-11-16T19:06:15.960Z,13.05
2022-11-16T19:08:43.516Z,13.68
2022-11-16T19:11:12.423Z,12.00
2022-11-16T19:13:40.876Z,12.52
2022-11-16T19:16:09.179Z,14.75
2022-11-16T19:18:37.270Z,12.77
2022-11-16T19:21:14.970Z,12.48
2022-11-16T19:23:51.925Z,14.00
2022-11-16T19:26:20.923Z,12.88
2022-11-16T19:28:49.353Z,13.50
2022-11-16T19:31:24.761Z,11.90
2022-11-16T19:34:02.853Z,12.32
2022-11-16T19:36:31.346Z,12.77
2022-11-16T19:38:58.178Z,14.75
2022-11-16T19:41:25.938Z,13.85
2022-11-16T19:43:58.973Z,13.30
2022-11-16T19:46:30.967Z,11.55
2022-11-16T19:48:58.408Z,12.02
2022-11-16T19:51:31.270Z,11.75
2022-11-16T19:54:00.491Z,12.65
2022-11-16T19:56:27.975Z,12.82
2022-11-16T19:58:54.993Z,10.93
2022-11-16T20:01:28.664Z,12.57
2022-11-16T20:03:57.668Z,12.15
2022-11-16T20:06:28.868Z,11.85
2022-11-16T20:08:59.326Z,12.13
2022-11-16T20:11:27.754Z,12.05
2022-11-16T20:13:56.537Z,11.68
2022-11-16T20:16:26.135Z,11.85
2022-11-16T20:18:53.936Z,11.02
2022-11-16T20:21:29.321Z,11.45
2022-11-16T20:24:03.064Z,10.18
2022-11-16T20:26:34.181Z,11.00
2022-11-16T20:29:01.215Z,10.63
2022-11-16T20:31:30.149Z,11.20
2022-11-16T20:34:02.266Z,11.65
2022-11-16T20:36:30.108Z,11.82
2022-11-16T20:38:57.996Z,11.70
2022-11-16T20:41:27.089Z,11.18
2022-11-16T20:43:55.499Z,10.70
2022-11-16T20:46:24.595Z,10.25
2022-11-16T20:48:51.173Z,9.50
2022-11-16T20:51:19.626Z,9.00
2022-11-16T20:53:47.743Z,9.68
2022-11-16T20:56:16.072Z,8.07
2022-11-16T20:58:43.686Z,8.60
2022-11-16T21:01:13.178Z,7.93
2022-11-16T21:03:40.585Z,9.10
2022-11-16T21:06:09.067Z,7.97
2022-11-16T21:08:38.085Z,8.65
2022-11-16T21:11:19.492Z,7.53
2022-11-16T21:14:05.797Z,7.47
2022-11-16T21:16:33.592Z,7.20
2022-11-16T21:19:00.822Z,7.32
2022-11-16T21:21:28.141Z,9.25
2022-11-16T21:23:55.002Z,7.70
2022-11-16T21:26:25.254Z,7.35
2022-11-16T21:28:52.409Z,7.00
2022-11-16T21:31:22.127Z,7.22
2022-11-16T21:33:48.884Z,6.35
2022-11-16T21:36:20.538Z,6.47
2022-11-16T21:38:48.618Z,6.55
2022-11-16T21:41:17.872Z,6.20
2022-11-16T21:43:44.784Z,6.00
2022-11-16T21:46:22.549Z,6.05
2022-11-16T21:48:51.389Z,5.40
2022-11-16T21:51:19.956Z,5.32
2022-11-16T21:53:47.572Z,5.95
2022-11-16T21:56:18.961Z,4.97
2022-11-16T21:58:46.346Z,6.38
2022-11-16T22:01:15.909Z,6.03
2022-11-16T22:03:43.464Z,6.30
2022-11-16T22:06:32.434Z,6.60
2022-11-16T22:08:59.718Z,5.85
2022-11-16T22:11:26.859Z,6.55
2022-11-16T22:13:53.839Z,6.10
2022-11-16T22:16:23.703Z,6.10
2022-11-16T22:18:51.162Z,5.65
2022-11-16T22:21:17.775Z,6.10
2022-11-16T22:23:44.836Z,5.63
2022-11-16T22:26:13.025Z,5.40
2022-11-16T22:28:40.398Z,4.95
2022-11-16T22:31:12.887Z,5.32
2022-11-16T22:33:40.400Z,5.95
2022-11-16T22:36:10.639Z,5.45
2022-11-16T22:38:37.759Z,5.15
2022-11-16T22:41:05.232Z,5.68
2022-11-16T22:43:32.577Z,6.18
2022-11-16T22:46:02.022Z,5.68
2022-11-16T22:48:33.251Z,5.32
2022-11-16T22:51:22.871Z,4.90
2022-11-16T22:53:57.526Z,5.45
2022-11-16T22:56:24.996Z,5.00
2022-11-16T22:58:52.164Z,5.15
2022-11-16T23:01:20.199Z,4.55
2022-11-16T23:03:47.422Z,4.95
2022-11-16T23:06:14.174Z,5.03
2022-11-16T23:08:41.458Z,4.65
2022-11-16T23:11:32.367Z,5.38
2022-11-16T23:14:18.180Z,4.38
2022-11-16T23:16:45.434Z,4.95
2022-11-16T23:19:33.132Z,4.95
2022-11-16T23:22:18.378Z,4.60
2022-11-16T23:25:04.417Z,4.97
2022-11-16T23:27:41.503Z,5.13
2022-11-16T23:30:12.672Z,4.85
2022-11-16T23:32:40.979Z,4.90
2022-11-16T23:35:08.816Z,4.78
2022-11-16T23:37:49.159Z,4.47
2022-11-16T23:40:16.103Z,4.50
2022-11-16T23:43:01.666Z,4.78
2022-11-16T23:45:28.190Z,4.50
2022-11-16T23:47:55.194Z,4.63
2022-11-16T23:50:22.160Z,5.10
2022-11-16T23:52:48.696Z,5.18
2022-11-16T23:55:15.681Z,4.82
2022-11-16T23:57:42.654Z,5.13
